Time;durP1;ratioP1;P1;durP2;ratioP2;P2;SDS_P1;SDS_P2;PMS_P1;PMS_P2;Temp;Humidity;BMP_temperature;BMP_pressure;BME280_temperature;BME280_humidity;BME280_pressure;Samples;Min_cycle;Max_cycle;Signal;HPM_P1;HPM_P2
2023/08/11 00:00:58;;;;;;;0.20;0.10;;;;;;;;;;4997464;28;20041;-81
2023/08/11 00:03:24;;;;;;;0.20;0.10;;;;;;;;;;5001287;28;20044;-81
2023/08/11 00:05:50;;;;;;;0.20;0.10;;;;;;;;;;5000075;28;20037;-80
2023/08/11 00:08:16;;;;;;;0.22;0.22;;;;;;;;;;4999469;28;20048;-81
2023/08/11 00:10:42;;;;;;;0.20;0.10;;;;;;;;;;4997830;28;20037;-80
2023/08/11 00:13:12;;;;;;;0.32;0.30;;;;;;;;;;5001196;28;20029;-81
2023/08/11 00:15:39;;;;;;;0.63;0.20;;;;;;;;;;5001935;28;20449;-81
2023/08/11 00:18:06;;;;;;;0.22;0.22;;;;;;;;;;5007754;28;20041;-81
2023/08/11 00:20:32;;;;;;;0.20;0.10;;;;;;;;;;4995956;28;20041;-81
2023/08/11 00:22:58;;;;;;;0.40;0.28;;;;;;;;;;5000196;28;20279;-80
2023/08/11 00:25:24;;;;;;;0.20;0.20;;;;;;;;;;5017159;28;20029;-81
2023/08/11 00:27:50;;;;;;;0.35;0.15;;;;;;;;;;4998608;28;20052;-80
2023/08/11 00:30:18;;;;;;;0.40;0.40;;;;;;;;;;5010593;28;20583;-80
2023/08/11 00:32:45;;;;;;;0.30;0.20;;;;;;;;;;4997653;28;20131;-81
2023/08/11 00:35:11;;;;;;;0.73;0.22;;;;;;;;;;5016076;28;20048;-81
2023/08/11 00:37:37;;;;;;;0.20;0.10;;;;;;;;;;5018090;28;20532;-81
2023/08/11 00:40:04;;;;;;;0.63;0.30;;;;;;;;;;5013323;28;20109;-81
2023/08/11 00:42:30;;;;;;;0.20;0.10;;;;;;;;;;4993320;28;20056;-81
2023/08/11 00:44:59;;;;;;;0.20;0.13;;;;;;;;;;5005686;28;20061;-81
2023/08/11 00:47:25;;;;;;;0.35;0.20;;;;;;;;;;5001661;28;20155;-80
2023/08/11 00:49:51;;;;;;;0.20;0.20;;;;;;;;;;5005059;28;20036;-81
2023/08/11 00:52:18;;;;;;;0.45;0.43;;;;;;;;;;5000687;28;20038;-81
2023/08/11 00:54:44;;;;;;;0.35;0.35;;;;;;;;;;4983309;28;20063;-81
2023/08/11 00:57:13;;;;;;;0.20;0.20;;;;;;;;;;5000582;28;20049;-80
2023/08/11 00:59:39;;;;;;;0.73;0.30;;;;;;;;;;5004346;28;20054;-80
2023/08/11 01:02:06;;;;;;;0.38;0.38;;;;;;;;;;5009507;28;20056;-81
2023/08/11 01:04:33;;;;;;;0.55;0.43;;;;;;;;;;5019994;28;20139;-80
2023/08/11 01:07:17;;;;;;;0.20;0.20;;;;;;;;;;4987466;28;20122;-81
2023/08/11 01:09:48;;;;;;;0.20;0.10;;;;;;;;;;4990107;28;20029;-81
2023/08/11 01:12:26;;;;;;;0.20;0.20;;;;;;;;;;5007946;28;20053;-80
2023/08/11 01:15:08;;;;;;;0.20;0.13;;;;;;;;;;5002223;28;20097;-81
2023/08/11 01:17:35;;;;;;;1.00;0.88;;;;;;;;;;4985504;28;20418;-80
2023/08/11 01:20:08;;;;;;;0.20;0.10;;;;;;;;;;5003799;28;20048;-81
2023/08/11 01:22:35;;;;;;;1.05;0.43;;;;;;;;;;5001467;28;20056;-81
2023/08/11 01:25:02;;;;;;;0.20;0.10;;;;;;;;;;4985717;28;20045;-80
2023/08/11 01:27:28;;;;;;;0.40;0.25;;;;;;;;;;4999567;28;20498;-81
2023/08/11 01:29:54;;;;;;;0.50;0.50;;;;;;;;;;5016971;28;20033;-81
2023/08/11 01:32:20;;;;;;;0.40;0.38;;;;;;;;;;4998913;28;20476;-81
2023/08/11 01:34:46;;;;;;;0.88;0.57;;;;;;;;;;5018159;28;20161;-81
2023/08/11 01:37:13;;;;;;;0.20;0.10;;;;;;;;;;4982538;28;20096;-80
2023/08/11 01:39:39;;;;;;;0.28;0.20;;;;;;;;;;5001630;28;20072;-80
2023/08/11 01:42:05;;;;;;;0.20;0.20;;;;;;;;;;5000557;28;20049;-81
2023/08/11 01:44:32;;;;;;;0.20;0.10;;;;;;;;;;5003589;28;20137;-80
2023/08/11 01:46:58;;;;;;;0.45;0.40;;;;;;;;;;5006375;28;20488;-80
2023/08/11 01:49:25;;;;;;;1.38;0.32;;;;;;;;;;5000480;28;20498;-80
2023/08/11 01:51:52;;;;;;;0.20;0.20;;;;;;;;;;5017301;28;20043;-80
2023/08/11 01:54:18;;;;;;;0.40;0.40;;;;;;;;;;4998150;28;20038;-81
2023/08/11 01:56:44;;;;;;;0.40;0.40;;;;;;;;;;5001328;28;20040;-80
2023/08/11 01:59:15;;;;;;;0.20;0.20;;;;;;;;;;5002782;28;20037;-80
2023/08/11 02:01:41;;;;;;;0.90;0.40;;;;;;;;;;4987561;28;20156;-81
2023/08/11 02:04:10;;;;;;;0.20;0.10;;;;;;;;;;5003129;28;20124;-80
2023/08/11 02:06:39;;;;;;;0.20;0.15;;;;;;;;;;5009875;28;20713;-81
2023/08/11 02:09:08;;;;;;;0.20;0.20;;;;;;;;;;5004673;28;20468;-81
2023/08/11 02:11:35;;;;;;;0.30;0.20;;;;;;;;;;4999150;28;20049;-80
2023/08/11 02:14:01;;;;;;;0.30;0.20;;;;;;;;;;4979856;28;20063;-80
2023/08/11 02:16:27;;;;;;;0.30;0.20;;;;;;;;;;5000197;28;20034;-80
2023/08/11 02:18:54;;;;;;;0.52;0.38;;;;;;;;;;4997785;28;20049;-81
2023/08/11 02:21:21;;;;;;;0.30;0.30;;;;;;;;;;4999050;28;20038;-81
2023/08/11 02:23:47;;;;;;;0.57;0.32;;;;;;;;;;4999502;28;20046;-80
2023/08/11 02:26:14;;;;;;;0.20;0.10;;;;;;;;;;5007377;28;20033;-80
2023/08/11 02:28:41;;;;;;;0.20;0.10;;;;;;;;;;4995302;28;20119;-80
2023/08/11 02:31:10;;;;;;;0.30;0.30;;;;;;;;;;5002600;28;20037;-80
2023/08/11 02:33:36;;;;;;;0.20;0.20;;;;;;;;;;5025925;28;20048;-80
2023/08/11 02:36:04;;;;;;;0.68;0.50;;;;;;;;;;5022775;28;20057;-80
2023/08/11 02:38:30;;;;;;;0.20;0.10;;;;;;;;;;5024734;28;20076;-80
2023/08/11 02:40:56;;;;;;;0.20;0.10;;;;;;;;;;5014424;28;20033;-80
2023/08/11 02:43:22;;;;;;;1.30;0.73;;;;;;;;;;5006836;28;20069;-80
2023/08/11 02:45:48;;;;;;;0.35;0.20;;;;;;;;;;5007669;28;20125;-80
2023/08/11 02:48:14;;;;;;;0.20;0.10;;;;;;;;;;4984068;28;20181;-81
2023/08/11 02:50:40;;;;;;;0.20;0.10;;;;;;;;;;5006063;28;20056;-80
2023/08/11 02:53:06;;;;;;;0.30;0.20;;;;;;;;;;5017731;28;20434;-80
2023/08/11 02:55:32;;;;;;;0.20;0.20;;;;;;;;;;5011858;28;20037;-80
2023/08/11 02:57:58;;;;;;;0.20;0.20;;;;;;;;;;5002493;28;20057;-80
2023/08/11 03:00:24;;;;;;;0.20;0.20;;;;;;;;;;5002833;28;20069;-81
2023/08/11 03:10:45;;;;;;;0.20;0.20;;;;;;;;;;1318518;26;20399;-84
2023/08/11 03:13:23;;;;;;;0.30;0.20;;;;;;;;;;5016781;28;20417;-84
2023/08/11 03:15:52;;;;;;;;;;;;;;;;;;4998014;28;20041;-84
2023/08/11 03:18:21;;;;;;;0.20;0.10;;;;;;;;;;4999718;28;19972;-85
2023/08/11 03:20:50;;;;;;;0.25;0.20;;;;;;;;;;4999696;28;20037;-85
2023/08/11 03:23:19;;;;;;;0.38;0.38;;;;;;;;;;4995178;28;20084;-85
2023/08/11 03:25:57;;;;;;;0.20;0.10;;;;;;;;;;4992650;28;20448;-85
2023/08/11 03:28:29;;;;;;;0.20;0.10;;;;;;;;;;4995769;28;20029;-85
2023/08/11 03:31:05;;;;;;;0.20;0.20;;;;;;;;;;5011733;28;20402;-86
2023/08/11 03:33:47;;;;;;;0.20;0.10;;;;;;;;;;5011977;28;20041;-85
2023/08/11 03:36:31;;;;;;;0.20;0.05;;;;;;;;;;4998418;28;20993;-85
2023/08/11 03:39:00;;;;;;;0.20;0.10;;;;;;;;;;4998279;28;20099;-86
2023/08/11 03:41:26;;;;;;;0.20;0.10;;;;;;;;;;5008422;28;20040;-84
2023/08/11 03:43:53;;;;;;;0.22;0.20;;;;;;;;;;5020990;23;20079;-85
2023/08/11 03:46:21;;;;;;;0.20;0.15;;;;;;;;;;5016286;28;20754;-86
2023/08/11 03:48:47;;;;;;;0.20;0.10;;;;;;;;;;5015600;28;20040;-85
2023/08/11 03:51:27;;;;;;;0.20;0.10;;;;;;;;;;5002872;28;20776;-85
2023/08/11 03:54:24;;;;;;;0.20;0.10;;;;;;;;;;5012005;28;20273;-85
2023/08/11 03:57:01;;;;;;;0.52;0.52;;;;;;;;;;5014873;28;20037;-86
2023/08/11 04:02:46;;;;;;;0.20;0.10;;;;;;;;;;4965697;28;20049;-85
2023/08/11 04:05:41;;;;;;;0.20;0.13;;;;;;;;;;4988253;28;20044;-85
2023/08/11 04:15:19;;;;;;;0.20;0.10;;;;;;;;;;4928711;28;19976;-85
2023/08/11 04:18:08;;;;;;;0.30;0.30;;;;;;;;;;4932287;28;20059;-85
2023/08/11 04:20:46;;;;;;;0.20;0.13;;;;;;;;;;4929735;28;20058;-85
2023/08/11 04:23:13;;;;;;;0.20;0.10;;;;;;;;;;4975527;28;20077;-84
2023/08/11 04:25:47;;;;;;;0.20;0.20;;;;;;;;;;5026066;28;20041;-86
2023/08/11 04:28:13;;;;;;;0.20;0.10;;;;;;;;;;5009036;28;20048;-84
2023/08/11 04:30:55;;;;;;;0.70;0.52;;;;;;;;;;5008145;28;20123;-85
2023/08/11 04:33:32;;;;;;;0.55;0.55;;;;;;;;;;4989842;28;20044;-85
2023/08/11 04:39:46;;;;;;;0.30;0.15;;;;;;;;;;5004968;28;20045;-85
2023/08/11 04:42:43;;;;;;;0.20;0.10;;;;;;;;;;5012078;28;20045;-84
2023/08/11 04:45:16;;;;;;;0.25;0.20;;;;;;;;;;4999206;28;20931;-83
2023/08/11 04:47:47;;;;;;;;;;;;;;;;;;5009886;28;20852;-84
2023/08/11 04:50:23;;;;;;;0.30;0.30;;;;;;;;;;4990540;28;20538;-84
2023/08/11 04:52:55;;;;;;;0.35;0.32;;;;;;;;;;4996163;28;20056;-85
2023/08/11 04:55:45;;;;;;;0.50;0.20;;;;;;;;;;5004098;28;20041;-86
2023/08/11 04:58:33;;;;;;;0.20;0.10;;;;;;;;;;4988070;28;20405;-84
2023/08/11 05:01:14;;;;;;;0.20;0.10;;;;;;;;;;4964271;28;20050;-85
2023/08/11 05:03:53;;;;;;;;;;;;;;;;;;;;;
2023/08/11 05:06:46;;;;;;;0.40;0.30;;;;;;;;;;5014229;28;20052;-84
2023/08/11 05:09:58;;;;;;;0.20;0.10;;;;;;;;;;5011383;28;20046;-85
2023/08/11 05:12:27;;;;;;;0.20;0.10;;;;;;;;;;5018264;28;20075;-85
2023/08/11 05:14:53;;;;;;;0.25;0.10;;;;;;;;;;5003560;28;20049;-85
2023/08/11 05:17:27;;;;;;;0.20;0.13;;;;;;;;;;5013729;28;20048;-85
2023/08/11 05:20:46;;;;;;;;;;;;;;;;;;;;;
2023/08/11 05:23:18;;;;;;;0.20;0.20;;;;;;;;;;5028217;28;20399;-85
2023/08/11 05:29:07;;;;;;;0.20;0.10;;;;;;;;;;5012897;28;22375;-84
2023/08/11 05:35:12;;;;;;;0.20;0.10;;;;;;;;;;5064170;23;20449;-83
2023/08/11 05:38:05;;;;;;;0.65;0.63;;;;;;;;;;5029186;28;20055;-85
2023/08/11 05:57:51;;;;;;;0.20;0.10;;;;;;;;;;5000159;28;20033;-85
2023/08/11 06:00:42;;;;;;;0.20;0.10;;;;;;;;;;4980241;28;20128;-83
2023/08/11 06:03:19;;;;;;;0.20;0.10;;;;;;;;;;4998278;28;20052;-84
2023/08/11 06:05:48;;;;;;;0.20;0.10;;;;;;;;;;4991251;28;20092;-84
2023/08/11 06:08:22;;;;;;;0.20;0.10;;;;;;;;;;5005451;28;20055;-85
2023/08/11 06:14:10;;;;;;;0.25;0.20;;;;;;;;;;5121287;22;20080;-84
2023/08/11 06:16:47;;;;;;;0.22;0.13;;;;;;;;;;5031066;28;20051;-83
2023/08/11 06:19:16;;;;;;;0.25;0.25;;;;;;;;;;5010958;28;20065;-84
2023/08/11 06:21:47;;;;;;;0.20;0.13;;;;;;;;;;5015952;28;20095;-84
2023/08/11 06:24:16;;;;;;;0.20;0.10;;;;;;;;;;5007940;28;20041;-83
2023/08/11 06:26:51;;;;;;;0.20;0.20;;;;;;;;;;5025326;28;20040;-85
2023/08/11 06:29:17;;;;;;;0.20;0.10;;;;;;;;;;5020520;28;20416;-84
2023/08/11 06:31:43;;;;;;;0.20;0.10;;;;;;;;;;5017439;28;20049;-83
2023/08/11 06:34:17;;;;;;;0.20;0.10;;;;;;;;;;5031384;28;20037;-84
2023/08/11 06:36:49;;;;;;;0.20;0.10;;;;;;;;;;5023741;28;20072;-84
2023/08/11 06:39:36;;;;;;;0.20;0.10;;;;;;;;;;5018253;28;20101;-85
2023/08/11 06:42:02;;;;;;;0.20;0.20;;;;;;;;;;5032670;28;20071;-83
2023/08/11 06:44:31;;;;;;;0.30;0.20;;;;;;;;;;5032837;28;20045;-85
2023/08/11 06:46:57;;;;;;;0.20;0.10;;;;;;;;;;5004435;28;20136;-83
2023/08/11 06:49:23;;;;;;;0.20;0.10;;;;;;;;;;5023347;28;20044;-83
2023/08/11 06:51:55;;;;;;;0.20;0.10;;;;;;;;;;5023799;28;20454;-84
2023/08/11 06:54:24;;;;;;;0.30;0.30;;;;;;;;;;5032229;28;20040;-84
2023/08/11 06:59:52;;;;;;;0.20;0.10;;;;;;;;;;4997479;28;20044;-83
2023/08/11 07:02:21;;;;;;;0.20;0.20;;;;;;;;;;5014538;28;20036;-84
2023/08/11 07:05:04;;;;;;;0.20;0.05;;;;;;;;;;5041898;28;20029;-84
2023/08/11 07:07:30;;;;;;;0.30;0.30;;;;;;;;;;5024464;28;20634;-85
2023/08/11 07:12:51;;;;;;;0.20;0.10;;;;;;;;;;5025860;28;20041;-84
2023/08/11 07:15:19;;;;;;;0.35;0.35;;;;;;;;;;5020419;28;20043;-83
2023/08/11 07:18:01;;;;;;;0.25;0.15;;;;;;;;;;5034248;28;20044;-86
2023/08/11 07:20:47;;;;;;;0.50;0.40;;;;;;;;;;5032293;28;21372;-84
2023/08/11 07:23:16;;;;;;;0.20;0.10;;;;;;;;;;5031471;28;20048;-85
2023/08/11 07:25:42;;;;;;;0.20;0.10;;;;;;;;;;5022531;28;20673;-84
2023/08/11 07:28:08;;;;;;;0.20;0.15;;;;;;;;;;5023632;28;20170;-83
2023/08/11 07:31:20;;;;;;;0.20;0.10;;;;;;;;;;5025562;28;20397;-85
2023/08/11 07:33:46;;;;;;;0.90;0.25;;;;;;;;;;5021122;28;20123;-83
2023/08/11 07:36:27;;;;;;;0.20;0.10;;;;;;;;;;5026629;28;20091;-85
2023/08/11 07:38:56;;;;;;;0.20;0.10;;;;;;;;;;5024958;28;20044;-86
2023/08/11 07:41:22;;;;;;;0.20;0.10;;;;;;;;;;5025069;28;20560;-85
2023/08/11 07:43:51;;;;;;;0.20;0.10;;;;;;;;;;5024427;28;20091;-85
2023/08/11 07:46:29;;;;;;;0.20;0.10;;;;;;;;;;5017837;28;20123;-84
2023/08/11 07:49:15;;;;;;;0.20;0.10;;;;;;;;;;5025556;28;20041;-86
2023/08/11 07:52:01;;;;;;;0.20;0.10;;;;;;;;;;5017968;28;20879;-87
2023/08/11 07:55:10;;;;;;;;;;;;;;;;;;;;;
2023/08/11 07:58:17;;;;;;;0.20;0.10;;;;;;;;;;5009653;28;20040;-84
2023/08/11 08:00:46;;;;;;;0.20;0.10;;;;;;;;;;5029099;28;20053;-84
2023/08/11 08:03:12;;;;;;;0.65;0.38;;;;;;;;;;5033865;28;20495;-84
2023/08/11 08:05:38;;;;;;;0.20;0.10;;;;;;;;;;5019702;28;20400;-83
2023/08/11 08:08:05;;;;;;;0.20;0.10;;;;;;;;;;5012418;28;20032;-85
2023/08/11 08:10:34;;;;;;;0.20;0.10;;;;;;;;;;5019560;28;22396;-85
2023/08/11 08:13:00;;;;;;;0.20;0.10;;;;;;;;;;5013209;28;20386;-86
2023/08/11 08:18:40;;;;;;;0.20;0.20;;;;;;;;;;5008229;28;20044;-84
2023/08/11 08:21:06;;;;;;;0.20;0.20;;;;;;;;;;5028856;28;20144;-84
2023/08/11 08:23:32;;;;;;;0.20;0.10;;;;;;;;;;4999481;28;20132;-86
2023/08/11 08:25:58;;;;;;;0.20;0.10;;;;;;;;;;5017576;28;20051;-86
2023/08/11 08:28:24;;;;;;;0.20;0.08;;;;;;;;;;5009235;28;20250;-83
2023/08/11 08:31:19;;;;;;;0.20;0.15;;;;;;;;;;4994369;28;20050;-86
2023/08/11 08:33:48;;;;;;;0.30;0.30;;;;;;;;;;4952442;28;20058;-85
2023/08/11 08:36:33;;;;;;;0.68;0.40;;;;;;;;;;5037301;28;20032;-87
2023/08/11 08:39:02;;;;;;;0.20;0.10;;;;;;;;;;5024206;28;20045;-85
2023/08/11 08:41:31;;;;;;;0.20;0.10;;;;;;;;;;5013947;28;20090;-85
2023/08/11 08:44:03;;;;;;;0.20;0.05;;;;;;;;;;5033640;28;20072;-85
2023/08/11 08:46:41;;;;;;;0.20;0.10;;;;;;;;;;5016694;28;20043;-84
2023/08/11 08:50:00;;;;;;;0.20;0.10;;;;;;;;;;5027341;28;22235;-85
2023/08/11 08:52:19;;;;;;;0.20;0.10;;;;;;;;;;5027074;28;20059;-84
2023/08/11 08:54:45;;;;;;;0.28;0.17;;;;;;;;;;5037353;28;20049;-83
2023/08/11 08:57:17;;;;;;;0.20;0.10;;;;;;;;;;5036145;28;20489;-87
2023/08/11 08:59:59;;;;;;;0.20;0.00;;;;;;;;;;5015098;28;20126;-82
2023/08/11 09:02:29;;;;;;;0.20;0.10;;;;;;;;;;5006010;28;20095;-83
2023/08/11 09:04:57;;;;;;;0.20;0.10;;;;;;;;;;5035828;28;20037;-84
2023/08/11 09:07:24;;;;;;;0.30;0.20;;;;;;;;;;5053047;22;20143;-81
2023/08/11 09:09:50;;;;;;;0.20;0.10;;;;;;;;;;5056710;28;20040;-79
2023/08/11 09:12:16;;;;;;;0.40;0.20;;;;;;;;;;5054361;28;20043;-83
2023/08/11 09:14:43;;;;;;;1.67;0.47;;;;;;;;;;5041002;28;20100;-83
2023/08/11 09:17:15;;;;;;;0.30;0.20;;;;;;;;;;5053280;28;20041;-85
2023/08/11 09:19:48;;;;;;;0.20;0.10;;;;;;;;;;5026939;28;20115;-83
2023/08/11 09:22:14;;;;;;;0.20;0.10;;;;;;;;;;5022277;28;20037;-80
2023/08/11 09:24:46;;;;;;;0.20;0.20;;;;;;;;;;5027706;28;20149;-85
2023/08/11 09:27:36;;;;;;;0.20;0.10;;;;;;;;;;5027726;28;20079;-84
2023/08/11 09:30:03;;;;;;;0.20;0.10;;;;;;;;;;5043600;28;20044;-80
2023/08/11 09:32:35;;;;;;;0.20;0.10;;;;;;;;;;5043248;28;20047;-82
2023/08/11 09:35:02;;;;;;;0.20;0.10;;;;;;;;;;5027226;28;20125;-81
2023/08/11 09:37:31;;;;;;;0.30;0.20;;;;;;;;;;5043262;28;20077;-85
2023/08/11 09:40:03;;;;;;;0.30;0.20;;;;;;;;;;5028644;28;20062;-82
2023/08/11 09:42:36;;;;;;;0.20;0.20;;;;;;;;;;5023472;28;20041;-84
2023/08/11 09:45:04;;;;;;;0.20;0.10;;;;;;;;;;5029956;28;20045;-82
2023/08/11 09:47:30;;;;;;;0.20;0.10;;;;;;;;;;5028630;28;20055;-83
2023/08/11 09:49:57;;;;;;;0.28;0.17;;;;;;;;;;5034279;28;20036;-83
2023/08/11 09:52:49;;;;;;;0.30;0.30;;;;;;;;;;5042371;28;20044;-85
2023/08/11 09:55:26;;;;;;;0.20;0.10;;;;;;;;;;4960853;28;20057;-85
2023/08/11 09:57:53;;;;;;;0.30;0.30;;;;;;;;;;5037014;28;20151;-86
2023/08/11 10:00:19;;;;;;;0.20;0.10;;;;;;;;;;5022753;28;20048;-81
2023/08/11 10:03:16;;;;;;;0.20;0.10;;;;;;;;;;5043765;28;20675;-85
2023/08/11 10:05:43;;;;;;;0.20;0.10;;;;;;;;;;5040344;28;20760;-82
2023/08/11 10:08:18;;;;;;;0.20;0.10;;;;;;;;;;5027789;28;20047;-81
2023/08/11 10:10:54;;;;;;;0.20;0.10;;;;;;;;;;5032722;28;20044;-85
2023/08/11 10:13:24;;;;;;;0.22;0.15;;;;;;;;;;5035991;28;20119;-84
2023/08/11 10:15:55;;;;;;;0.20;0.10;;;;;;;;;;5050761;28;20036;-80
2023/08/11 10:18:21;;;;;;;0.65;0.30;;;;;;;;;;5033791;28;20831;-81
2023/08/11 10:20:51;;;;;;;0.20;0.20;;;;;;;;;;5042309;28;20040;-81
2023/08/11 10:23:18;;;;;;;0.20;0.05;;;;;;;;;;5044302;28;20519;-84
2023/08/11 10:25:45;;;;;;;0.30;0.13;;;;;;;;;;5028717;28;20037;-84
2023/08/11 10:28:12;;;;;;;0.20;0.13;;;;;;;;;;5051257;28;20040;-84
2023/08/11 10:30:40;;;;;;;0.20;0.10;;;;;;;;;;5048585;28;20071;-83
2023/08/11 10:33:09;;;;;;;1.40;0.40;;;;;;;;;;5023726;28;20093;-83
2023/08/11 10:35:48;;;;;;;0.22;0.22;;;;;;;;;;5049895;28;20036;-84
2023/08/11 10:38:18;;;;;;;0.30;0.20;;;;;;;;;;5043229;28;20104;-81
2023/08/11 10:40:44;;;;;;;0.20;0.20;;;;;;;;;;5043430;28;20044;-84
2023/08/11 10:43:11;;;;;;;0.20;0.10;;;;;;;;;;5026915;28;20064;-81
2023/08/11 10:45:39;;;;;;;0.30;0.30;;;;;;;;;;5031165;28;20048;-82
2023/08/11 10:48:09;;;;;;;0.22;0.10;;;;;;;;;;5040941;28;20099;-85
2023/08/11 10:50:36;;;;;;;0.20;0.20;;;;;;;;;;5044356;28;20384;-84
2023/08/11 10:53:21;;;;;;;0.77;0.20;;;;;;;;;;5040626;28;20131;-82
2023/08/11 10:55:59;;;;;;;0.20;0.10;;;;;;;;;;5043212;28;20044;-84
2023/08/11 10:58:25;;;;;;;0.20;0.17;;;;;;;;;;5049974;28;20063;-87
2023/08/11 11:00:51;;;;;;;0.20;0.10;;;;;;;;;;5030625;28;20045;-81
2023/08/11 11:03:18;;;;;;;0.20;0.10;;;;;;;;;;5044756;28;20114;-82
2023/08/11 11:05:49;;;;;;;0.20;0.10;;;;;;;;;;5033634;28;20044;-88
2023/08/11 11:08:15;;;;;;;0.20;0.10;;;;;;;;;;5030364;28;20108;-84
2023/08/11 11:10:42;;;;;;;0.22;0.10;;;;;;;;;;5043647;28;20349;-85
2023/08/11 11:13:08;;;;;;;0.20;0.10;;;;;;;;;;5027585;28;20122;-85
2023/08/11 11:15:34;;;;;;;0.20;0.20;;;;;;;;;;5028122;28;20509;-84
2023/08/11 11:18:03;;;;;;;0.35;0.20;;;;;;;;;;5044181;28;20124;-85
2023/08/11 11:20:30;;;;;;;0.20;0.10;;;;;;;;;;5047686;28;20426;-84
2023/08/11 11:22:56;;;;;;;0.20;0.10;;;;;;;;;;5037370;28;20044;-83
2023/08/11 11:25:22;;;;;;;0.22;0.20;;;;;;;;;;5042811;28;20123;-85
2023/08/11 11:27:48;;;;;;;0.20;0.10;;;;;;;;;;5046573;28;20028;-84
2023/08/11 11:30:15;;;;;;;0.22;0.20;;;;;;;;;;5034830;28;20060;-84
2023/08/11 11:32:44;;;;;;;0.20;0.10;;;;;;;;;;5043869;28;20040;-81
2023/08/11 11:35:10;;;;;;;0.20;0.10;;;;;;;;;;5033583;28;20047;-81
2023/08/11 11:37:39;;;;;;;0.20;0.10;;;;;;;;;;5034998;28;20778;-85
2023/08/11 11:40:06;;;;;;;0.20;0.10;;;;;;;;;;5035703;28;20592;-86
2023/08/11 11:42:35;;;;;;;0.20;0.10;;;;;;;;;;5042361;28;20041;-83
2023/08/11 11:45:01;;;;;;;0.20;0.10;;;;;;;;;;5021804;28;20048;-83
2023/08/11 11:50:34;;;;;;;0.20;0.10;;;;;;;;;;5036457;28;20060;-82
2023/08/11 11:53:00;;;;;;;0.40;0.22;;;;;;;;;;5025512;28;20036;-83
2023/08/11 11:55:35;;;;;;;0.20;0.10;;;;;;;;;;5024084;28;20955;-86
2023/08/11 11:58:05;;;;;;;0.20;0.10;;;;;;;;;;5037415;28;20313;-83
2023/08/11 12:00:32;;;;;;;0.32;0.30;;;;;;;;;;5030046;28;20082;-84
2023/08/11 12:02:58;;;;;;;0.35;0.20;;;;;;;;;;5044342;28;20177;-82
2023/08/11 12:05:25;;;;;;;0.22;0.13;;;;;;;;;;5042093;28;20123;-81
2023/08/11 12:07:54;;;;;;;0.20;0.20;;;;;;;;;;5046915;28;20048;-85
2023/08/11 12:10:30;;;;;;;0.20;0.20;;;;;;;;;;5042026;28;20440;-85
2023/08/11 12:12:59;;;;;;;0.20;0.15;;;;;;;;;;5041740;28;20028;-83
2023/08/11 12:15:26;;;;;;;0.20;0.17;;;;;;;;;;5040556;28;20078;-84
2023/08/11 12:17:56;;;;;;;0.28;0.22;;;;;;;;;;5024329;28;20044;-83
2023/08/11 12:20:25;;;;;;;0.20;0.10;;;;;;;;;;5046198;28;20040;-81
2023/08/11 12:22:51;;;;;;;0.32;0.20;;;;;;;;;;5045225;28;20438;-81
2023/08/11 12:25:18;;;;;;;0.20;0.10;;;;;;;;;;5049391;28;20754;-83
2023/08/11 12:27:52;;;;;;;0.30;0.30;;;;;;;;;;5016345;28;20033;-86
2023/08/11 12:30:18;;;;;;;0.57;0.52;;;;;;;;;;5026329;28;20043;-83
2023/08/11 12:33:02;;;;;;;0.20;0.20;;;;;;;;;;5033797;28;20123;-84
2023/08/11 12:35:28;;;;;;;0.20;0.10;;;;;;;;;;5020559;28;20044;-83
2023/08/11 12:37:54;;;;;;;0.20;0.10;;;;;;;;;;5032680;28;20436;-80
2023/08/11 12:40:22;;;;;;;0.30;0.20;;;;;;;;;;5020229;28;21008;-84
2023/08/11 12:46:04;;;;;;;0.30;0.20;;;;;;;;;;5017527;28;20048;-83
2023/08/11 12:48:30;;;;;;;0.20;0.15;;;;;;;;;;5014458;28;20048;-81
2023/08/11 12:50:56;;;;;;;0.85;0.50;;;;;;;;;;5036714;28;20033;-84
2023/08/11 12:53:22;;;;;;;0.20;0.20;;;;;;;;;;5040089;28;20044;-83
2023/08/11 12:55:49;;;;;;;0.20;0.10;;;;;;;;;;5036816;28;20044;-84
2023/08/11 12:58:15;;;;;;;0.20;0.20;;;;;;;;;;5033261;28;20136;-83
2023/08/11 13:00:41;;;;;;;0.28;0.28;;;;;;;;;;5044190;28;20052;-84
2023/08/11 13:03:33;;;;;;;0.20;0.10;;;;;;;;;;5031435;28;20041;-88
2023/08/11 13:06:28;;;;;;;0.20;0.10;;;;;;;;;;5030877;28;20036;-85
2023/08/11 13:08:54;;;;;;;0.30;0.28;;;;;;;;;;5044799;28;20050;-83
2023/08/11 13:11:20;;;;;;;0.20;0.10;;;;;;;;;;5030060;28;20120;-82
2023/08/11 13:13:47;;;;;;;0.82;0.20;;;;;;;;;;5048252;28;20436;-83
2023/08/11 13:16:13;;;;;;;0.20;0.20;;;;;;;;;;5028523;28;20032;-85
2023/08/11 13:18:48;;;;;;;0.20;0.10;;;;;;;;;;5026085;28;20124;-84
2023/08/11 13:21:14;;;;;;;0.30;0.20;;;;;;;;;;5020772;28;20044;-84
2023/08/11 13:23:40;;;;;;;0.20;0.10;;;;;;;;;;5064765;28;20119;-83
2023/08/11 13:26:15;;;;;;;0.20;0.20;;;;;;;;;;5029481;28;20068;-85
2023/08/11 13:28:42;;;;;;;0.20;0.17;;;;;;;;;;5045755;28;20048;-81
2023/08/11 13:31:08;;;;;;;0.20;0.10;;;;;;;;;;5052176;28;20033;-83
2023/08/11 13:33:34;;;;;;;0.20;0.20;;;;;;;;;;5051123;28;20040;-84
2023/08/11 13:36:00;;;;;;;0.20;0.20;;;;;;;;;;5043036;28;20032;-82
2023/08/11 13:38:27;;;;;;;0.20;0.10;;;;;;;;;;5042459;28;20043;-79
2023/08/11 13:40:54;;;;;;;0.20;0.10;;;;;;;;;;5024447;28;20036;-83
2023/08/11 13:43:22;;;;;;;0.20;0.10;;;;;;;;;;5043143;28;20037;-83
2023/08/11 13:45:48;;;;;;;0.20;0.15;;;;;;;;;;5026325;28;20033;-83
2023/08/11 13:48:16;;;;;;;0.20;0.20;;;;;;;;;;5022357;28;20984;-82
2023/08/11 13:50:42;;;;;;;0.20;0.10;;;;;;;;;;5022933;28;20090;-81
2023/08/11 13:53:10;;;;;;;0.20;0.10;;;;;;;;;;5044919;28;20123;-82
2023/08/11 13:55:36;;;;;;;1.10;0.30;;;;;;;;;;5041142;28;20148;-82
2023/08/11 13:58:02;;;;;;;0.20;0.20;;;;;;;;;;5026924;28;20041;-82
2023/08/11 14:00:28;;;;;;;0.30;0.30;;;;;;;;;;5034226;28;20123;-85
2023/08/11 14:02:56;;;;;;;0.20;0.10;;;;;;;;;;5043229;28;20055;-82
2023/08/11 14:05:24;;;;;;;0.52;0.28;;;;;;;;;;5046986;28;20041;-82
2023/08/11 14:07:50;;;;;;;0.20;0.10;;;;;;;;;;5068718;28;20039;-82
2023/08/11 14:10:17;;;;;;;0.28;0.25;;;;;;;;;;5044121;28;20048;-85
2023/08/11 14:12:43;;;;;;;0.30;0.10;;;;;;;;;;5038127;28;20040;-83
2023/08/11 14:15:09;;;;;;;0.28;0.20;;;;;;;;;;5035944;28;20024;-82
2023/08/11 14:17:35;;;;;;;0.20;0.20;;;;;;;;;;5025009;28;20080;-82
2023/08/11 14:20:01;;;;;;;0.20;0.17;;;;;;;;;;5035417;28;20043;-83
2023/08/11 14:22:27;;;;;;;0.25;0.22;;;;;;;;;;5041752;28;20068;-83
2023/08/11 14:24:54;;;;;;;0.60;0.40;;;;;;;;;;5020502;28;20040;-82
2023/08/11 14:27:20;;;;;;;0.30;0.20;;;;;;;;;;5009205;28;20041;-79
2023/08/11 14:29:46;;;;;;;0.20;0.10;;;;;;;;;;5027198;28;20033;-83
2023/08/11 14:32:12;;;;;;;0.20;0.10;;;;;;;;;;5041250;28;20685;-84
2023/08/11 14:34:41;;;;;;;0.22;0.22;;;;;;;;;;5022674;28;20669;-85
2023/08/11 14:37:13;;;;;;;0.20;0.20;;;;;;;;;;5031374;28;20044;-86
2023/08/11 14:39:39;;;;;;;0.25;0.22;;;;;;;;;;5022702;28;20656;-83
2023/08/11 14:42:05;;;;;;;0.57;0.35;;;;;;;;;;5041897;28;20074;-83
2023/08/11 14:44:31;;;;;;;0.20;0.20;;;;;;;;;;5032870;28;20068;-83
2023/08/11 14:46:59;;;;;;;0.30;0.30;;;;;;;;;;5042284;28;20056;-82
2023/08/11 14:49:25;;;;;;;0.30;0.20;;;;;;;;;;5037400;28;20045;-81
2023/08/11 14:51:53;;;;;;;0.28;0.15;;;;;;;;;;5050498;28;20115;-80
2023/08/11 14:54:19;;;;;;;0.20;0.13;;;;;;;;;;5030339;28;20075;-83
2023/08/11 14:56:46;;;;;;;0.30;0.30;;;;;;;;;;5045827;28;20044;-81
2023/08/11 14:59:12;;;;;;;0.20;0.10;;;;;;;;;;5045679;28;20040;-82
2023/08/11 15:01:38;;;;;;;0.30;0.30;;;;;;;;;;5035272;28;20048;-83
2023/08/11 15:04:04;;;;;;;0.35;0.35;;;;;;;;;;5029332;28;20135;-82
2023/08/11 15:06:30;;;;;;;0.20;0.20;;;;;;;;;;5023812;28;20168;-81
2023/08/11 15:08:56;;;;;;;0.20;0.10;;;;;;;;;;5062602;22;20185;-89
2023/08/11 15:11:22;;;;;;;0.20;0.20;;;;;;;;;;5003074;28;20081;-85
2023/08/11 15:13:48;;;;;;;0.20;0.20;;;;;;;;;;5010755;28;20058;-87
2023/08/11 15:16:14;;;;;;;0.20;0.10;;;;;;;;;;5019144;28;20069;-88
2023/08/11 15:18:41;;;;;;;0.20;0.10;;;;;;;;;;4999668;28;20041;-87
2023/08/11 15:21:13;;;;;;;0.50;0.30;;;;;;;;;;5026287;28;20187;-87
2023/08/11 15:23:40;;;;;;;0.35;0.35;;;;;;;;;;5024243;28;20167;-86
2023/08/11 15:26:06;;;;;;;0.20;0.13;;;;;;;;;;5024513;28;20084;-84
2023/08/11 15:28:33;;;;;;;0.20;0.10;;;;;;;;;;5019952;28;20269;-84
2023/08/11 15:31:04;;;;;;;0.20;0.10;;;;;;;;;;5005832;28;20461;-84
2023/08/11 15:33:31;;;;;;;0.20;0.13;;;;;;;;;;5025462;28;20131;-85
2023/08/11 15:35:57;;;;;;;0.20;0.10;;;;;;;;;;5034088;28;20620;-83
2023/08/11 15:38:28;;;;;;;0.30;0.30;;;;;;;;;;5026844;28;20416;-84
2023/08/11 15:40:54;;;;;;;0.20;0.10;;;;;;;;;;5014388;28;20068;-88
2023/08/11 15:43:20;;;;;;;0.30;0.22;;;;;;;;;;5018530;28;20049;-87
2023/08/11 15:45:46;;;;;;;0.25;0.13;;;;;;;;;;5008248;28;20033;-86
2023/08/11 15:51:01;;;;;;;0.20;0.10;;;;;;;;;;5007126;28;20052;-87
2023/08/11 15:53:33;;;;;;;0.30;0.20;;;;;;;;;;5018028;28;20051;-87
2023/08/11 15:56:02;;;;;;;0.20;0.20;;;;;;;;;;5015631;28;20382;-87
2023/08/11 15:58:28;;;;;;;0.20;0.20;;;;;;;;;;5012624;28;20210;-87
2023/08/11 16:00:54;;;;;;;0.20;0.10;;;;;;;;;;5021894;28;20135;-85
2023/08/11 16:03:21;;;;;;;0.20;0.10;;;;;;;;;;5040809;28;20428;-87
2023/08/11 16:05:47;;;;;;;0.38;0.22;;;;;;;;;;5012236;28;20045;-86
2023/08/11 16:08:45;;;;;;;0.20;0.15;;;;;;;;;;5001853;28;20060;-87
2023/08/11 16:11:13;;;;;;;0.30;0.10;;;;;;;;;;5013738;28;20159;-87
2023/08/11 16:13:41;;;;;;;0.30;0.22;;;;;;;;;;5004712;28;20486;-86